Time;durP1;ratioP1;P1;durP2;ratioP2;P2;SDS_P1;SDS_P2;PMS_P1;PMS_P2;Temp;Humidity;BMP_temperature;BMP_pressure;BME280_temperature;BME280_humidity;BME280_pressure;Samples;Min_cycle;Max_cycle;Signal;HPM_P1;HPM_P2
2023/12/26 00:00:41;;;;;;;4.40;1.87;;;7.20;12.20;;;;;;5007878;28;21200;-69
2023/12/26 00:03:08;;;;;;;5.60;1.67;;;7.20;12.20;;;;;;5017926;28;20480;-68
2023/12/26 00:05:35;;;;;;;7.40;2.10;;;7.10;12.10;;;;;;5007606;28;20453;-69
2023/12/26 00:08:03;;;;;;;4.70;1.70;;;7.10;12.60;;;;;;5012678;28;20467;-68
2023/12/26 00:10:31;;;;;;;4.70;2.13;;;7.10;11.70;;;;;;5009364;28;20469;-68
2023/12/26 00:12:59;;;;;;;5.70;2.23;;;7.10;11.50;;;;;;5013423;28;20450;-68
2023/12/26 00:15:26;;;;;;;5.17;2.37;;;7.00;11.40;;;;;;5012425;28;20497;-69
2023/12/26 00:17:53;;;;;;;5.10;2.13;;;7.00;11.60;;;;;;5011150;28;20488;-69
2023/12/26 00:20:20;;;;;;;5.10;1.97;;;6.90;11.70;;;;;;5009389;28;20941;-69
2023/12/26 00:22:47;;;;;;;6.83;2.03;;;6.90;11.90;;;;;;5004741;28;20452;-69
2023/12/26 00:25:13;;;;;;;4.73;1.90;;;6.90;12.40;;;;;;5011390;28;20956;-69
2023/12/26 00:27:42;;;;;;;5.63;2.10;;;6.80;12.80;;;;;;5013236;28;21107;-69
2023/12/26 00:30:09;;;;;;;4.83;1.73;;;6.80;13.40;;;;;;5009176;28;20825;-68
2023/12/26 00:32:36;;;;;;;6.43;2.20;;;6.80;13.80;;;;;;5011277;28;20527;-69
2023/12/26 00:35:04;;;;;;;5.70;2.50;;;6.70;14.00;;;;;;5011933;28;20490;-69
2023/12/26 00:37:31;;;;;;;4.47;1.93;;;6.70;14.10;;;;;;5013164;28;20476;-70
2023/12/26 00:39:58;;;;;;;6.57;2.10;;;6.70;14.40;;;;;;5013249;28;20971;-68
2023/12/26 00:42:25;;;;;;;5.40;2.20;;;6.70;14.60;;;;;;5010005;28;20452;-69
2023/12/26 00:44:53;;;;;;;5.30;1.83;;;6.60;14.90;;;;;;5012773;28;20479;-68
2023/12/26 00:47:20;;;;;;;7.93;2.37;;;6.60;15.20;;;;;;5013799;28;20460;-69
2023/12/26 00:49:47;;;;;;;4.40;1.80;;;6.60;15.50;;;;;;5015542;28;20987;-68
2023/12/26 00:52:14;;;;;;;5.07;2.03;;;6.60;15.70;;;;;;5010929;28;20471;-68
2023/12/26 00:54:41;;;;;;;8.70;2.70;;;6.60;15.80;;;;;;5012685;28;20479;-68
2023/12/26 00:57:07;;;;;;;7.37;2.60;;;6.60;16.00;;;;;;5012881;28;20490;-69
2023/12/26 00:59:34;;;;;;;4.60;2.00;;;6.60;16.10;;;;;;5011598;28;20467;-69
2023/12/26 01:02:02;;;;;;;6.67;2.30;;;6.60;16.20;;;;;;5015261;28;20487;-68
2023/12/26 01:04:30;;;;;;;6.20;2.00;;;6.60;16.50;;;;;;5010164;28;20499;-68
2023/12/26 01:06:56;;;;;;;10.43;3.57;;;6.60;16.80;;;;;;5013756;28;20504;-68
2023/12/26 01:09:23;;;;;;;6.43;2.03;;;6.60;16.80;;;;;;5009445;28;20459;-68
2023/12/26 01:11:50;;;;;;;7.00;2.67;;;6.50;16.90;;;;;;5011042;28;20468;-68
2023/12/26 01:14:17;;;;;;;5.47;2.30;;;6.50;17.10;;;;;;5010129;28;20486;-69
2023/12/26 01:16:45;;;;;;;4.40;2.43;;;6.50;17.10;;;;;;5014325;28;20995;-68
2023/12/26 01:19:13;;;;;;;4.50;2.10;;;6.50;17.20;;;;;;5010245;28;20480;-69
2023/12/26 01:21:40;;;;;;;6.17;2.50;;;6.50;17.40;;;;;;5010998;28;20492;-69
2023/12/26 01:24:07;;;;;;;5.20;2.30;;;6.50;17.50;;;;;;5007418;28;20480;-68
2023/12/26 01:26:34;;;;;;;6.87;2.40;;;6.40;17.60;;;;;;5010775;28;20452;-69
2023/12/26 01:29:02;;;;;;;5.37;2.40;;;6.50;17.70;;;;;;5011615;28;20464;-69
2023/12/26 01:31:29;;;;;;;6.10;2.23;;;6.40;17.80;;;;;;5006744;28;20475;-69
2023/12/26 01:33:56;;;;;;;5.53;2.10;;;6.40;17.80;;;;;;5011277;28;21085;-68
2023/12/26 01:36:24;;;;;;;4.30;2.07;;;6.50;17.90;;;;;;5025656;22;20691;-69
2023/12/26 01:38:51;;;;;;;5.30;2.33;;;6.50;18.20;;;;;;5028284;28;20470;-69
2023/12/26 01:41:18;;;;;;;7.20;2.10;;;6.50;18.30;;;;;;5030753;28;20467;-69
2023/12/26 01:43:45;;;;;;;5.93;2.50;;;6.50;18.50;;;;;;5027639;28;20982;-68
2023/12/26 01:46:12;;;;;;;9.60;2.20;;;6.50;18.50;;;;;;5026007;28;20486;-68
2023/12/26 01:48:40;;;;;;;6.07;2.13;;;6.50;18.60;;;;;;5029003;28;20454;-69
2023/12/26 01:51:09;;;;;;;4.43;2.33;;;6.50;18.70;;;;;;5028509;28;20463;-69
2023/12/26 01:53:39;;;;;;;8.90;2.47;;;6.40;18.80;;;;;;5051425;28;20489;-68
2023/12/26 01:56:07;;;;;;;6.40;2.90;;;6.40;19.00;;;;;;5040449;28;20494;-68
2023/12/26 01:58:35;;;;;;;10.60;2.90;;;6.40;19.00;;;;;;5027236;28;20832;-69
2023/12/26 02:01:01;;;;;;;4.87;2.40;;;6.40;19.10;;;;;;5024391;28;20487;-68
2023/12/26 02:03:28;;;;;;;6.40;2.50;;;6.40;19.00;;;;;;5023934;28;20482;-68
2023/12/26 02:05:56;;;;;;;9.03;3.10;;;6.30;19.00;;;;;;5025540;28;21010;-68
2023/12/26 02:08:23;;;;;;;5.37;2.63;;;6.40;19.00;;;;;;5022861;28;20464;-68
2023/12/26 02:10:51;;;;;;;7.17;2.43;;;6.30;19.10;;;;;;5026731;28;20458;-69
2023/12/26 02:13:19;;;;;;;6.47;2.67;;;6.30;19.10;;;;;;5022912;28;20490;-68
2023/12/26 02:15:47;;;;;;;5.77;2.27;;;6.30;19.20;;;;;;5024858;28;20455;-69
2023/12/26 02:18:14;;;;;;;8.80;2.17;;;6.30;19.20;;;;;;5028542;28;20478;-68
2023/12/26 02:20:41;;;;;;;7.00;2.50;;;6.30;19.10;;;;;;5023321;28;20459;-68
2023/12/26 02:23:07;;;;;;;8.00;3.00;;;6.30;19.10;;;;;;5026784;28;20492;-69
2023/12/26 02:25:36;;;;;;;7.77;3.03;;;6.20;19.00;;;;;;5031950;28;20455;-68
2023/12/26 02:28:06;;;;;;;7.27;2.70;;;6.20;19.10;;;;;;5027921;28;20848;-68
2023/12/26 02:30:33;;;;;;;8.30;2.57;;;6.20;19.10;;;;;;5029318;28;20490;-69
2023/12/26 02:33:01;;;;;;;7.70;3.83;;;6.20;19.00;;;;;;5027081;28;20470;-68
2023/12/26 02:35:28;;;;;;;7.93;2.60;;;6.10;19.00;;;;;;5025055;28;20558;-68
2023/12/26 02:37:55;;;;;;;5.03;2.20;;;6.10;18.90;;;;;;5027886;28;20834;-68
2023/12/26 02:40:22;;;;;;;5.07;2.37;;;6.10;18.80;;;;;;5026289;28;20462;-68
2023/12/26 02:42:50;;;;;;;9.20;3.70;;;6.10;18.80;;;;;;5025520;28;20458;-69
2023/12/26 02:45:17;;;;;;;7.87;3.10;;;6.00;18.80;;;;;;5028399;28;20451;-68
2023/12/26 02:47:44;;;;;;;4.67;2.40;;;6.00;18.80;;;;;;5026908;28;20466;-68
2023/12/26 02:50:11;;;;;;;6.70;3.00;;;6.00;18.80;;;;;;5025155;28;20455;-68
2023/12/26 02:52:39;;;;;;;5.53;2.53;;;6.00;18.80;;;;;;5022335;28;20452;-69
2023/12/26 02:55:06;;;;;;;5.43;2.60;;;6.00;18.90;;;;;;5027593;28;20585;-68
2023/12/26 02:57:33;;;;;;;5.03;2.17;;;5.90;19.00;;;;;;5026772;28;20486;-68
2023/12/26 03:00:01;;;;;;;4.93;2.57;;;5.90;19.00;;;;;;5024567;28;20470;-69
2023/12/26 03:02:28;;;;;;;6.67;2.90;;;5.90;19.00;;;;;;5024011;28;20478;-69
2023/12/26 03:04:55;;;;;;;5.00;2.30;;;5.90;19.00;;;;;;5021518;28;20489;-69
2023/12/26 03:07:21;;;;;;;6.70;3.13;;;5.80;19.10;;;;;;5022160;28;20566;-69
2023/12/26 03:09:48;;;;;;;5.63;2.40;;;5.80;19.00;;;;;;5018495;28;20464;-69
2023/12/26 03:12:15;;;;;;;7.27;3.20;;;5.80;19.10;;;;;;5022334;28;20924;-69
2023/12/26 03:14:42;;;;;;;6.03;2.97;;;5.80;19.20;;;;;;5026764;28;20498;-69
2023/12/26 03:17:10;;;;;;;5.30;2.10;;;5.80;19.20;;;;;;5025720;28;20490;-69
2023/12/26 03:19:36;;;;;;;6.70;2.60;;;5.70;19.40;;;;;;5024206;28;20455;-69
2023/12/26 03:22:04;;;;;;;5.53;2.87;;;5.70;19.40;;;;;;5022065;28;20455;-69
2023/12/26 03:24:31;;;;;;;5.77;2.73;;;5.70;19.40;;;;;;5025041;28;20536;-69
2023/12/26 03:26:58;;;;;;;5.93;2.50;;;5.70;19.60;;;;;;5025588;28;20470;-70
2023/12/26 03:29:24;;;;;;;5.70;2.67;;;5.70;19.70;;;;;;5025660;28;20472;-69
2023/12/26 03:31:51;;;;;;;8.60;3.40;;;5.70;19.70;;;;;;5025160;28;20478;-70
2023/12/26 03:34:19;;;;;;;6.20;2.73;;;5.60;19.60;;;;;;5022561;28;20533;-69
2023/12/26 03:36:48;;;;;;;8.27;3.03;;;5.60;19.70;;;;;;5027348;28;20463;-69
2023/12/26 03:39:15;;;;;;;7.43;2.67;;;5.60;19.70;;;;;;5031706;28;20477;-69
2023/12/26 03:41:44;;;;;;;5.23;2.53;;;5.60;19.60;;;;;;5022895;28;20458;-68
2023/12/26 03:44:10;;;;;;;6.63;2.50;;;5.60;19.60;;;;;;5026821;28;20621;-68
2023/12/26 03:46:37;;;;;;;5.50;2.40;;;5.50;19.60;;;;;;5026671;28;20467;-68
2023/12/26 03:49:04;;;;;;;7.17;2.80;;;5.50;19.70;;;;;;5024157;28;20481;-69
2023/12/26 03:51:32;;;;;;;6.87;2.90;;;5.40;19.60;;;;;;5029967;28;20818;-69
2023/12/26 03:53:59;;;;;;;6.50;2.87;;;5.40;19.60;;;;;;5025392;28;21294;-68
2023/12/26 03:56:30;;;;;;;8.60;2.73;;;5.40;19.50;;;;;;5026288;28;20546;-68
2023/12/26 03:58:57;;;;;;;6.23;2.70;;;5.30;19.50;;;;;;5028348;28;20478;-68
2023/12/26 04:01:23;;;;;;;8.98;3.33;;;5.30;19.50;;;;;;5025808;28;20468;-68
2023/12/26 04:03:50;;;;;;;5.50;2.50;;;5.30;19.70;;;;;;5023516;28;20696;-68
2023/12/26 04:06:17;;;;;;;5.97;2.43;;;5.30;19.60;;;;;;5028353;28;20463;-68
2023/12/26 04:08:45;;;;;;;6.50;2.93;;;5.20;19.60;;;;;;5029675;28;20463;-69
2023/12/26 04:11:13;;;;;;;7.00;3.10;;;5.20;19.70;;;;;;5034999;28;20458;-68
2023/12/26 04:13:40;;;;;;;7.43;3.03;;;5.20;19.80;;;;;;5022895;28;20490;-69
2023/12/26 04:16:07;;;;;;;8.80;2.80;;;5.10;19.80;;;;;;5024825;28;20497;-68
2023/12/26 04:18:34;;;;;;;5.43;2.80;;;5.10;19.90;;;;;;5024322;28;20479;-70
2023/12/26 04:21:01;;;;;;;8.57;2.80;;;5.10;19.90;;;;;;5034590;28;20512;-68
2023/12/26 04:23:28;;;;;;;5.60;2.33;;;5.10;20.00;;;;;;5034356;28;20481;-69
2023/12/26 04:25:56;;;;;;;7.87;2.70;;;5.10;20.30;;;;;;5032886;28;20820;-72
2023/12/26 04:28:23;;;;;;;9.53;2.90;;;5.10;20.30;;;;;;5029283;28;20822;-68
2023/12/26 04:30:50;;;;;;;7.13;2.77;;;5.10;20.60;;;;;;5027834;28;20475;-69
2023/12/26 04:33:16;;;;;;;4.90;2.40;;;5.10;20.80;;;;;;5026798;28;20485;-69
2023/12/26 04:35:43;;;;;;;7.37;3.10;;;5.10;21.00;;;;;;5027895;28;20499;-69
2023/12/26 04:38:12;;;;;;;8.37;2.60;;;5.10;21.40;;;;;;5025504;28;20483;-68
2023/12/26 04:40:39;;;;;;;7.70;3.27;;;5.00;21.40;;;;;;5026366;28;23397;-69
2023/12/26 04:43:08;;;;;;;5.87;2.50;;;5.00;21.60;;;;;;5029951;28;20979;-68
2023/12/26 04:45:36;;;;;;;7.37;2.70;;;5.00;21.90;;;;;;5028464;28;20546;-69
2023/12/26 04:48:07;;;;;;;9.47;3.10;;;5.00;22.00;;;;;;5044484;28;20465;-68
2023/12/26 04:50:34;;;;;;;12.20;3.60;;;5.10;22.10;;;;;;5050462;28;20465;-69
2023/12/26 04:53:04;;;;;;;8.03;3.37;;;5.00;22.20;;;;;;5026911;28;20473;-69
2023/12/26 04:55:31;;;;;;;7.40;3.00;;;5.10;23.10;;;;;;5029860;28;20455;-69
2023/12/26 04:57:57;;;;;;;12.83;3.27;;;5.10;22.40;;;;;;5028258;28;20483;-69
2023/12/26 05:00:26;;;;;;;12.23;3.07;;;5.10;22.70;;;;;;5028971;28;20465;-69
2023/12/26 05:02:52;;;;;;;11.13;3.07;;;5.10;22.70;;;;;;5027698;28;20467;-69
2023/12/26 05:05:19;;;;;;;5.97;2.70;;;5.10;22.60;;;;;;5029783;28;20459;-69
2023/12/26 05:07:46;;;;;;;7.70;3.00;;;5.10;22.70;;;;;;5028990;28;20460;-69
2023/12/26 05:10:13;;;;;;;7.30;3.00;;;5.20;22.70;;;;;;5028825;28;20458;-69
2023/12/26 05:12:39;;;;;;;7.57;2.77;;;5.10;22.80;;;;;;5029380;28;20467;-68
2023/12/26 05:15:07;;;;;;;7.03;3.03;;;5.20;22.80;;;;;;5027895;28;20475;-68
2023/12/26 05:17:35;;;;;;;6.67;2.87;;;5.20;23.50;;;;;;5023916;28;21134;-68
2023/12/26 05:20:01;;;;;;;6.63;2.50;;;5.20;23.10;;;;;;5029325;28;20463;-68
2023/12/26 05:22:28;;;;;;;8.20;3.10;;;5.20;23.10;;;;;;5029410;28;20482;-69
2023/12/26 05:24:55;;;;;;;8.37;2.97;;;5.20;23.40;;;;;;5029159;28;20499;-68
2023/12/26 05:27:22;;;;;;;6.20;3.10;;;5.20;23.60;;;;;;5028929;28;20825;-68
2023/12/26 05:29:48;;;;;;;12.03;3.30;;;5.30;23.60;;;;;;5026685;28;20851;-69
2023/12/26 05:32:15;;;;;;;5.90;2.93;;;5.30;23.70;;;;;;5026851;28;20485;-69
2023/12/26 05:34:48;;;;;;;5.67;2.80;;;5.30;23.70;;;;;;5028099;28;20494;-69
2023/12/26 05:37:14;;;;;;;8.53;3.17;;;5.30;23.90;;;;;;5024365;28;21007;-69
2023/12/26 05:39:43;;;;;;;6.63;2.67;;;5.40;23.80;;;;;;5027311;28;20496;-68
2023/12/26 05:42:10;;;;;;;7.00;3.17;;;5.40;23.90;;;;;;5028662;28;20465;-69
2023/12/26 05:44:36;;;;;;;6.10;3.10;;;5.40;23.90;;;;;;5028440;28;20487;-69
2023/12/26 05:47:05;;;;;;;14.33;3.67;;;5.40;23.70;;;;;;5024110;28;20467;-69
2023/12/26 05:49:32;;;;;;;7.63;3.00;;;5.40;23.70;;;;;;5026765;28;20468;-68
2023/12/26 05:52:00;;;;;;;5.80;2.70;;;5.50;23.70;;;;;;5029438;28;20887;-68
2023/12/26 05:54:27;;;;;;;6.90;2.73;;;5.40;23.80;;;;;;5025463;28;20494;-68
2023/12/26 05:56:53;;;;;;;6.07;2.63;;;5.50;23.70;;;;;;5029016;28;20459;-68
2023/12/26 05:59:20;;;;;;;7.67;3.07;;;5.50;23.70;;;;;;5029851;28;20479;-68
2023/12/26 06:01:47;;;;;;;8.23;3.47;;;5.50;23.60;;;;;;5023062;28;21031;-69
2023/12/26 06:04:14;;;;;;;6.13;3.50;;;5.50;23.70;;;;;;5027147;28;20493;-69
2023/12/26 06:06:41;;;;;;;6.23;2.73;;;5.50;23.60;;;;;;5027566;28;20963;-69
2023/12/26 06:09:09;;;;;;;7.33;3.20;;;5.50;24.20;;;;;;5027424;28;20459;-69
2023/12/26 06:11:36;;;;;;;5.73;2.80;;;5.50;23.70;;;;;;5028663;28;20950;-68
2023/12/26 06:14:02;;;;;;;7.43;3.50;;;5.40;23.70;;;;;;5027092;28;20479;-69
2023/12/26 06:16:29;;;;;;;9.67;3.40;;;5.50;23.90;;;;;;5027791;28;20525;-69
2023/12/26 06:18:56;;;;;;;6.83;3.30;;;5.40;24.00;;;;;;5025048;28;20490;-69
2023/12/26 06:21:23;;;;;;;8.00;3.93;;;5.50;24.00;;;;;;5029403;28;20455;-69
2023/12/26 06:23:50;;;;;;;11.87;3.90;;;5.50;23.90;;;;;;5026297;28;20484;-69
2023/12/26 06:26:18;;;;;;;8.33;3.30;;;5.50;23.90;;;;;;5032796;28;20461;-69
2023/12/26 06:28:45;;;;;;;5.30;2.90;;;5.50;23.80;;;;;;5031165;28;21028;-69
2023/12/26 06:31:15;;;;;;;9.27;4.07;;;5.50;23.80;;;;;;5033695;28;20945;-68
2023/12/26 06:33:42;;;;;;;6.97;3.07;;;5.50;23.80;;;;;;5027829;28;20478;-69
2023/12/26 06:36:09;;;;;;;6.70;2.60;;;5.40;23.70;;;;;;5034896;28;20462;-69
2023/12/26 06:38:36;;;;;;;6.63;3.23;;;5.40;23.70;;;;;;5026499;28;20493;-69
2023/12/26 06:41:04;;;;;;;10.10;3.20;;;5.40;23.70;;;;;;5028003;28;20546;-69
2023/12/26 06:43:32;;;;;;;6.33;3.00;;;5.40;23.70;;;;;;5022627;28;20487;-68
2023/12/26 06:45:59;;;;;;;8.77;3.90;;;5.40;23.90;;;;;;5029256;28;20454;-68
2023/12/26 06:48:26;;;;;;;5.90;2.80;;;5.40;23.70;;;;;;5024310;28;20466;-68
2023/12/26 06:50:52;;;;;;;5.93;2.43;;;5.40;23.80;;;;;;5023000;28;20465;-69
2023/12/26 06:53:19;;;;;;;8.33;3.30;;;5.50;23.90;;;;;;5024344;28;20491;-69
2023/12/26 06:55:46;;;;;;;7.83;3.37;;;5.50;24.10;;;;;;5027012;28;21149;-68
2023/12/26 06:58:13;;;;;;;7.27;3.13;;;5.50;24.00;;;;;;5029456;28;20455;-68
2023/12/26 07:00:41;;;;;;;6.73;3.00;;;5.50;24.00;;;;;;5025318;28;20489;-68
2023/12/26 07:03:08;;;;;;;5.93;2.77;;;5.50;24.00;;;;;;5023973;28;20482;-68
2023/12/26 07:05:35;;;;;;;11.90;3.30;;;5.50;23.90;;;;;;5027774;28;20463;-68
2023/12/26 07:08:02;;;;;;;6.33;2.97;;;5.40;23.80;;;;;;5027243;28;20463;-68
2023/12/26 07:10:29;;;;;;;5.57;2.67;;;5.40;23.80;;;;;;5025407;28;20467;-68
2023/12/26 07:12:56;;;;;;;13.40;3.00;;;5.40;23.90;;;;;;5027362;28;20481;-68
2023/12/26 07:15:22;;;;;;;9.10;2.97;;;5.50;23.90;;;;;;5025191;28;20461;-68
2023/12/26 07:17:50;;;;;;;6.40;3.90;;;5.50;23.90;;;;;;5026017;28;20482;-69
2023/12/26 07:20:17;;;;;;;7.40;2.87;;;5.50;23.80;;;;;;5023726;28;20484;-68
2023/12/26 07:22:44;;;;;;;9.30;3.23;;;5.50;23.80;;;;;;5026071;28;20466;-68
2023/12/26 07:25:11;;;;;;;7.23;2.63;;;5.50;23.60;;;;;;5028807;28;20452;-68
2023/12/26 07:27:37;;;;;;;9.20;4.20;;;5.50;23.40;;;;;;5026190;28;20443;-68
2023/12/26 07:30:05;;;;;;;9.43;2.60;;;5.50;23.50;;;;;;5026710;28;20466;-67
2023/12/26 07:32:32;;;;;;;9.93;3.67;;;5.60;23.90;;;;;;5025339;28;20474;-69
2023/12/26 07:35:00;;;;;;;11.13;3.07;;;5.60;23.10;;;;;;5026952;28;20573;-68
2023/12/26 07:37:27;;;;;;;6.53;2.80;;;5.70;23.30;;;;;;5027469;28;20553;-68
2023/12/26 07:39:54;;;;;;;6.60;2.87;;;5.80;23.10;;;;;;5026891;28;20486;-69
2023/12/26 07:42:20;;;;;;;6.40;2.53;;;5.80;23.10;;;;;;5031045;28;20439;-69
2023/12/26 07:44:47;;;;;;;6.53;3.10;;;6.00;22.90;;;;;;5052238;28;20470;-68
2023/12/26 07:47:15;;;;;;;8.70;2.90;;;6.10;22.70;;;;;;5040307;28;20443;-68
2023/12/26 07:49:42;;;;;;;5.50;2.60;;;6.20;22.30;;;;;;5027181;28;21065;-69
2023/12/26 07:52:11;;;;;;;8.20;2.90;;;6.30;22.20;;;;;;5026350;28;20824;-68
2023/12/26 07:54:37;;;;;;;6.33;3.03;;;6.40;21.70;;;;;;5028549;28;20498;-68
2023/12/26 07:57:05;;;;;;;5.67;3.70;;;6.50;21.30;;;;;;5032240;28;20490;-68
2023/12/26 07:59:32;;;;;;;7.67;3.10;;;6.60;21.00;;;;;;5028687;28;21062;-68
2023/12/26 08:01:58;;;;;;;5.40;2.80;;;6.60;20.70;;;;;;5028236;28;20478;-69
2023/12/26 08:04:25;;;;;;;5.87;2.67;;;6.70;20.50;;;;;;5029976;28;20470;-68
2023/12/26 08:06:52;;;;;;;5.67;2.73;;;6.80;20.50;;;;;;5029822;28;20461;-68
2023/12/26 08:09:20;;;;;;;5.20;2.70;;;6.80;20.30;;;;;;5031153;28;20448;-68
2023/12/26 08:11:47;;;;;;;4.93;2.13;;;6.90;20.10;;;;;;5033327;28;20984;-69
2023/12/26 08:14:17;;;;;;;6.50;2.27;;;6.90;20.00;;;;;;5047454;22;20462;-69
2023/12/26 08:16:44;;;;;;;7.80;2.67;;;6.90;20.00;;;;;;5048771;28;20494;-68
2023/12/26 08:19:11;;;;;;;7.17;2.70;;;7.00;20.00;;;;;;5054602;28;20477;-68
2023/12/26 08:21:38;;;;;;;8.33;3.00;;;7.00;20.00;;;;;;5061834;28;20469;-68
2023/12/26 08:24:07;;;;;;;6.53;2.60;;;7.00;20.00;;;;;;5051292;28;20485;-68
2023/12/26 08:26:35;;;;;;;5.40;2.80;;;7.00;20.00;;;;;;5047760;28;20515;-69
2023/12/26 08:29:02;;;;;;;6.33;3.20;;;7.10;20.00;;;;;;5048019;28;21022;-68
2023/12/26 08:31:29;;;;;;;7.13;2.50;;;7.10;20.00;;;;;;5049984;28;20996;-69
2023/12/26 08:33:56;;;;;;;5.50;2.90;;;7.20;19.90;;;;;;5051094;28;20484;-69
2023/12/26 08:36:23;;;;;;;6.33;2.60;;;7.30;19.60;;;;;;5047248;28;20481;-69
2023/12/26 08:38:49;;;;;;;5.63;2.33;;;7.50;20.00;;;;;;5051760;28;20481;-69
2023/12/26 08:41:16;;;;;;;8.73;3.63;;;8.00;19.50;;;;;;5049845;28;21029;-69
2023/12/26 08:43:44;;;;;;;7.60;3.10;;;8.60;18.50;;;;;;5055816;28;20486;-68
2023/12/26 08:46:11;;;;;;;6.07;2.63;;;8.90;17.40;;;;;;5054204;28;21189;-68
2023/12/26 08:48:38;;;;;;;7.60;2.77;;;8.90;16.50;;;;;;5047022;28;20497;-69
2023/12/26 08:51:05;;;;;;;5.47;2.43;;;8.90;16.10;;;;;;5047840;28;20468;-68
2023/12/26 08:53:32;;;;;;;7.83;3.30;;;8.80;16.10;;;;;;5051226;28;20490;-69
2023/12/26 08:56:01;;;;;;;7.60;3.63;;;8.80;16.10;;;;;;5043873;28;20523;-68
2023/12/26 08:58:31;;;;;;;5.80;2.90;;;8.80;16.00;;;;;;5050130;28;20476;-69
2023/12/26 09:00:59;;;;;;;5.53;2.90;;;8.80;16.00;;;;;;5058678;28;20466;-69
2023/12/26 09:03:26;;;;;;;11.33;4.17;;;8.80;16.20;;;;;;5046288;28;20489;-68
2023/12/26 09:05:53;;;;;;;6.50;2.90;;;8.80;16.00;;;;;;5045792;28;20477;-68
2023/12/26 09:08:20;;;;;;;8.20;3.47;;;8.90;16.20;;;;;;5045826;28;20469;-70
2023/12/26 09:10:47;;;;;;;7.87;3.80;;;9.10;16.00;;;;;;5045798;28;20493;-69
2023/12/26 09:13:15;;;;;;;7.03;2.80;;;9.10;15.70;;;;;;5050106;28;20561;-72
2023/12/26 09:15:43;;;;;;;8.20;3.50;;;9.20;15.40;;;;;;5045331;28;20546;-71
2023/12/26 09:18:11;;;;;;;9.30;3.50;;;9.20;15.30;;;;;;5041930;28;20476;-68
2023/12/26 09:20:38;;;;;;;6.20;2.60;;;9.30;15.20;;;;;;5048136;28;20572;-67
2023/12/26 09:23:05;;;;;;;11.93;5.77;;;9.30;15.10;;;;;;5046613;28;21032;-67
2023/12/26 09:25:31;;;;;;;13.43;6.07;;;9.40;14.80;;;;;;5047525;28;20466;-66
2023/12/26 09:27:58;;;;;;;9.27;5.53;;;9.50;14.60;;;;;;5043765;28;21100;-70
2023/12/26 09:30:25;;;;;;;7.00;2.53;;;9.70;14.50;;;;;;5045769;28;20462;-67
2023/12/26 09:32:52;;;;;;;10.20;5.03;;;9.80;13.90;;;;;;5046020;28;20462;-67
2023/12/26 09:35:20;;;;;;;9.27;4.23;;;9.70;13.50;;;;;;5041931;28;20469;-71
2023/12/26 09:37:47;;;;;;;7.77;3.40;;;9.80;13.50;;;;;;5042545;28;20466;-69
2023/12/26 09:40:14;;;;;;;6.53;2.60;;;9.80;13.30;;;;;;5037895;28;20525;-68
2023/12/26 09:42:41;;;;;;;6.90;3.30;;;9.80;12.90;;;;;;5045810;28;20477;-68
2023/12/26 09:45:11;;;;;;;7.53;3.10;;;9.80;13.10;;;;;;5045075;28;20487;-68
2023/12/26 09:47:41;;;;;;;12.37;5.83;;;9.80;13.20;;;;;;5045736;28;20549;-68
2023/12/26 09:50:08;;;;;;;9.10;3.50;;;9.90;13.20;;;;;;5045934;28;20839;-68
2023/12/26 09:52:38;;;;;;;6.87;3.50;;;9.90;13.10;;;;;;5047858;28;20934;-68
2023/12/26 09:55:06;;;;;;;6.03;3.20;;;10.00;13.10;;;;;;5056524;28;20492;-68
2023/12/26 09:57:33;;;;;;;8.30;3.10;;;10.10;13.20;;;;;;5047562;28;20553;-68
2023/12/26 10:00:01;;;;;;;10.43;4.27;;;10.20;13.00;;;;;;5046204;28;20473;-69
2023/12/26 10:02:28;;;;;;;8.60;3.20;;;10.30;12.90;;;;;;5049446;28;20479;-71
2023/12/26 10:04:55;;;;;;;8.77;3.67;;;10.50;12.90;;;;;;5045177;28;20485;-69
2023/12/26 10:07:22;;;;;;;6.60;2.73;;;10.60;12.50;;;;;;5046720;28;20520;-69
2023/12/26 10:09:51;;;;;;;11.70;3.33;;;10.70;12.40;;;;;;5044436;28;20465;-69
2023/12/26 10:12:19;;;;;;;6.17;2.80;;;10.80;12.10;;;;;;5045330;28;21030;-70
2023/12/26 10:14:46;;;;;;;6.73;3.13;;;10.90;11.90;;;;;;5044390;28;20995;-70
2023/12/26 10:17:16;;;;;;;6.97;2.83;;;11.00;11.80;;;;;;5050210;28;20469;-71
2023/12/26 10:19:44;;;;;;;7.10;2.77;;;11.10;11.50;;;;;;5048341;28;20522;-70
2023/12/26 10:22:11;;;;;;;6.23;2.93;;;11.20;11.20;;;;;;5044863;28;20480;-70
2023/12/26 10:24:37;;;;;;;6.10;2.37;;;11.20;11.20;;;;;;5044167;28;20478;-70
2023/12/26 10:27:05;;;;;;;5.10;2.30;;;11.20;11.10;;;;;;5045830;28;20469;-70
2023/12/26 10:29:32;;;;;;;7.30;3.27;;;11.20;10.90;;;;;;5047798;28;20457;-70
2023/12/26 10:32:01;;;;;;;7.60;3.00;;;11.20;10.90;;;;;;5046157;28;20475;-68
2023/12/26 10:34:30;;;;;;;11.70;4.70;;;11.20;10.80;;;;;;5040866;28;20535;-67
2023/12/26 10:36:58;;;;;;;8.93;5.27;;;11.20;10.90;;;;;;5049233;28;20450;-69
2023/12/26 10:39:25;;;;;;;6.10;3.60;;;11.30;11.20;;;;;;5043302;28;20505;-69
2023/12/26 10:41:53;;;;;;;8.30;4.03;;;11.40;11.10;;;;;;5047432;28;20459;-71
2023/12/26 10:44:25;;;;;;;7.73;3.70;;;11.50;10.80;;;;;;5046104;28;20474;-69
2023/12/26 10:46:52;;;;;;;11.87;6.90;;;11.50;10.20;;;;;;5044658;28;20468;-69
2023/12/26 10:49:24;;;;;;;6.83;3.70;;;11.40;10.20;;;;;;5046343;28;20450;-69
2023/12/26 10:51:53;;;;;;;8.13;3.90;;;11.40;10.30;;;;;;5045231;23;20487;-71
2023/12/26 10:54:21;;;;;;;9.10;3.93;;;11.30;10.40;;;;;;5027790;28;21137;-68
2023/12/26 10:56:48;;;;;;;5.87;2.50;;;11.30;10.30;;;;;;5034000;28;20467;-70
2023/12/26 13:51:41;;;;;;;8.83;3.00;;;11.10;11.30;;;;;;5030371;28;20442;-70
2023/12/26 13:54:45;;;;;;;10.17;3.37;;;11.10;11.20;;;;;;5023843;28;20490;-71
2023/12/26 13:57:49;;;;;;;5.63;2.67;;;11.10;11.50;;;;;;5033017;28;20456;-70
2023/12/26 14:00:53;;;;;;;8.20;3.30;;;11.00;11.60;;;;;;5027162;28;20989;-71
2023/12/26 14:03:58;;;;;;;5.40;2.03;;;11.00;11.90;;;;;;5025816;28;20581;-71
2023/12/26 14:07:02;;;;;;;10.60;2.70;;;10.90;12.00;;;;;;5025381;28;20549;-71
2023/12/26 14:10:07;;;;;;;6.73;2.33;;;10.90;12.00;;;;;;5024327;28;20454;-71
2023/12/26 14:13:12;;;;;;;6.40;2.37;;;10.90;12.10;;;;;;5024893;28;20590;-72
2023/12/26 14:16:18;;;;;;;10.80;2.23;;;10.80;12.20;;;;;;5024489;28;20553;-70
2023/12/26 14:19:23;;;;;;;8.70;2.60;;;10.80;12.30;;;;;;5030048;28;20462;-70
2023/12/26 14:22:27;;;;;;;8.70;2.70;;;10.80;12.40;;;;;;5024886;28;20566;-71
2023/12/26 14:25:31;;;;;;;5.80;2.67;;;10.70;12.40;;;;;;5028673;28;20946;-70
2023/12/26 14:28:35;;;;;;;7.03;1.83;;;10.70;12.60;;;;;;5027739;28;20463;-70
2023/12/26 14:31:39;;;;;;;6.70;2.30;;;10.70;12.80;;;;;;5024915;28;20889;-70
2023/12/26 14:34:43;;;;;;;5.97;2.20;;;10.70;12.80;;;;;;5022391;28;20721;-71
2023/12/26 14:37:48;;;;;;;6.80;2.23;;;10.60;12.80;;;;;;5027738;28;20454;-70
2023/12/26 14:40:56;;;;;;;5.03;2.20;;;10.60;12.70;;;;;;5023668;28;20488;-70
2023/12/26 14:44:00;;;;;;;6.10;2.93;;;10.50;13.00;;;;;;5025495;28;20470;-70
2023/12/26 14:47:04;;;;;;;8.57;2.43;;;10.50;13.10;;;;;;5024318;28;21017;-70
2023/12/26 14:50:08;;;;;;;9.30;3.33;;;10.50;13.30;;;;;;5021383;28;20464;-71
2023/12/26 14:53:12;;;;;;;6.93;2.63;;;10.50;13.40;;;;;;5027380;28;20465;-71
2023/12/26 14:56:16;;;;;;;10.40;3.10;;;10.40;13.50;;;;;;5025189;28;20487;-71
2023/12/26 14:59:20;;;;;;;6.60;2.47;;;10.40;13.70;;;;;;5023016;28;20466;-71
2023/12/26 15:01:59;;;;;;;7.17;2.33;;;10.40;13.80;;;;;;5025777;28;20934;-70
2023/12/26 15:04:26;;;;;;;7.53;2.50;;;10.30;13.80;;;;;;5029059;28;21080;-70
2023/12/26 15:06:53;;;;;;;8.57;2.00;;;10.30;13.90;;;;;;5030495;28;20528;-71
2023/12/26 15:09:20;;;;;;;9.33;3.03;;;10.30;14.10;;;;;;5028012;28;20474;-71
2023/12/26 15:11:47;;;;;;;7.50;2.53;;;10.30;14.10;;;;;;5027342;28;20519;-71
2023/12/26 15:14:14;;;;;;;6.47;3.70;;;10.30;14.20;;;;;;5023678;28;20479;-70
2023/12/26 15:16:41;;;;;;;9.07;3.53;;;10.30;14.30;;;;;;5030337;28;20463;-71
2023/12/26 15:19:09;;;;;;;10.80;3.13;;;10.30;14.40;;;;;;5026366;28;20975;-71
2023/12/26 15:21:42;;;;;;;6.77;3.20;;;10.30;14.40;;;;;;5025154;28;20485;-71
2023/12/26 15:24:09;;;;;;;7.00;2.70;;;10.30;14.50;;;;;;5023914;28;20525;-69
2023/12/26 15:26:36;;;;;;;7.13;3.13;;;10.30;14.50;;;;;;5026274;28;20463;-68
2023/12/26 15:29:03;;;;;;;6.40;3.20;;;10.30;14.60;;;;;;5019976;28;20470;-71
2023/12/26 15:31:30;;;;;;;6.90;3.53;;;10.30;14.60;;;;;;5025541;28;20487;-70
2023/12/26 15:33:57;;;;;;;13.70;3.17;;;10.20;14.50;;;;;;5016587;28;20495;-70
2023/12/26 15:36:26;;;;;;;11.43;3.10;;;10.20;14.60;;;;;;5018007;28;20478;-69
2023/12/26 15:38:54;;;;;;;6.67;2.83;;;10.30;14.60;;;;;;5028547;28;20549;-68
2023/12/26 15:41:23;;;;;;;8.67;3.00;;;10.20;14.50;;;;;;5028576;28;20851;-69
2023/12/26 15:43:51;;;;;;;9.40;2.37;;;10.20;14.50;;;;;;5024656;28;20505;-69
2023/12/26 15:46:19;;;;;;;9.80;2.87;;;10.20;14.30;;;;;;5034855;28;21300;-71
2023/12/26 15:48:47;;;;;;;8.27;3.67;;;10.10;14.40;;;;;;5021577;28;20482;-69
2023/12/26 15:51:16;;;;;;;5.60;2.27;;;10.10;14.40;;;;;;5027163;28;21023;-69
2023/12/26 15:53:44;;;;;;;8.40;3.10;;;10.00;14.50;;;;;;5026669;28;20521;-69
2023/12/26 15:56:11;;;;;;;8.20;3.07;;;10.00;14.60;;;;;;5028635;28;20558;-70
2023/12/26 15:58:38;;;;;;;6.93;2.63;;;9.90;14.70;;;;;;5024861;28;20963;-69